createdAt,value
2023-07-12T00:01:30.494Z,101283.03
2023-07-12T00:04:01.774Z,101281.53
2023-07-12T00:06:38.292Z,101288.72
2023-07-12T00:09:15.025Z,101281.88
2023-07-12T00:11:44.295Z,101286.38
2023-07-12T00:14:12.999Z,101279.38
2023-07-12T00:16:43.259Z,101264.16
2023-07-12T00:19:15.227Z,101269.63
2023-07-12T00:21:44.049Z,101272.75
2023-07-12T00:24:14.219Z,101257.06
2023-07-12T00:26:42.973Z,101276.19
2023-07-12T00:29:11.866Z,101272.03
2023-07-12T00:31:41.665Z,101258.91
2023-07-12T00:34:10.389Z,101276.91
2023-07-12T00:36:39.239Z,101276.09
2023-07-12T00:39:08.772Z,101276.09
2023-07-12T00:41:57.984Z,101267.50
2023-07-12T00:44:31.045Z,101275.34
2023-07-12T00:47:00.963Z,101274.53
2023-07-12T00:49:29.946Z,101255.03
2023-07-12T00:52:03.871Z,101262.72
2023-07-12T00:54:51.666Z,101251.72
2023-07-12T00:57:24.289Z,101238.22
2023-07-12T00:59:54.850Z,101246.41
2023-07-12T01:02:24.928Z,101242.63
2023-07-12T01:04:58.884Z,101241.78
2023-07-12T01:07:30.330Z,101243.56
2023-07-12T01:09:59.363Z,101244.47
2023-07-12T01:12:29.677Z,101233.56
2023-07-12T01:14:58.045Z,101229.09
2023-07-12T01:17:27.750Z,101231.91
2023-07-12T01:19:56.570Z,101232.63
2023-07-12T01:22:27.184Z,101236.00
2023-07-12T01:24:56.050Z,101234.69
2023-07-12T01:27:27.784Z,101233.97
2023-07-12T01:29:57.129Z,101230.19
2023-07-12T01:32:25.937Z,101222.56
2023-07-12T01:34:54.684Z,101225.41
2023-07-12T01:37:23.478Z,101230.63
2023-07-12T01:39:53.723Z,101229.78
2023-07-12T01:42:22.514Z,101231.47
2023-07-12T01:44:51.325Z,101229.69
2023-07-12T01:47:20.102Z,101237.09
2023-07-12T01:49:49.014Z,101219.25
2023-07-12T01:52:17.872Z,101228.41
2023-07-12T01:54:46.670Z,101226.06
2023-07-12T01:57:17.305Z,101226.28
2023-07-12T01:59:46.112Z,101233.91
2023-07-12T02:02:14.937Z,101229.31
2023-07-12T02:04:43.861Z,101230.06
2023-07-12T02:07:12.634Z,101230.63
2023-07-12T02:09:43.034Z,101228.72
2023-07-12T02:12:12.229Z,101234.38
2023-07-12T02:14:42.500Z,101233.25
2023-07-12T02:17:10.920Z,101222.03
2023-07-12T02:19:39.685Z,101231.75
2023-07-12T02:22:08.523Z,101216.63
2023-07-12T02:24:37.235Z,101215.69
2023-07-12T02:27:06.308Z,101207.84
2023-07-12T02:29:35.205Z,101206.19
2023-07-12T02:32:05.883Z,101194.38
2023-07-12T02:34:34.681Z,101188.63
2023-07-12T02:37:03.961Z,101192.91
2023-07-12T02:39:32.794Z,101194.75
2023-07-12T02:42:01.530Z,101186.94
2023-07-12T02:44:30.202Z,101194.78
2023-07-12T02:46:58.924Z,101189.91
2023-07-12T02:49:29.224Z,101185.13
2023-07-12T02:51:57.981Z,101190.06
2023-07-12T02:54:26.677Z,101186.16
2023-07-12T02:56:55.398Z,101179.47
2023-07-12T02:59:24.126Z,101175.41
2023-07-12T03:01:53.239Z,101174.16
2023-07-12T03:04:22.904Z,101184.78
2023-07-12T03:06:53.079Z,101181.59
2023-07-12T03:09:21.899Z,101177.91
2023-07-12T03:11:51.516Z,101181.34
2023-07-12T03:14:21.147Z,101186.53
2023-07-12T03:16:50.198Z,101183.19
2023-07-12T03:19:20.711Z,101172.94
2023-07-12T03:21:49.538Z,101170.84
2023-07-12T03:24:19.780Z,101175.59
2023-07-12T03:26:48.164Z,101174.00
2023-07-12T03:29:16.962Z,101171.91
2023-07-12T03:31:45.836Z,101175.06
2023-07-12T03:34:14.989Z,101168.56
2023-07-12T03:36:43.810Z,101173.91
2023-07-12T03:39:12.659Z,101166.59
2023-07-12T03:41:42.857Z,101174.22
2023-07-12T03:44:11.554Z,101179.63
2023-07-12T03:46:40.533Z,101180.38
2023-07-12T03:49:09.373Z,101178.06
2023-07-12T03:51:38.266Z,101179.03
2023-07-12T03:54:07.023Z,101181.75
2023-07-12T03:56:35.706Z,101181.03
2023-07-12T03:59:06.175Z,101185.09
2023-07-12T04:01:35.056Z,101177.31
2023-07-12T04:04:04.322Z,101180.00
2023-07-12T04:06:33.092Z,101171.56
2023-07-12T04:09:02.590Z,101175.34
2023-07-12T04:11:34.459Z,101167.28
2023-07-12T04:14:04.842Z,101174.25
2023-07-12T04:16:33.813Z,101163.72
2023-07-12T04:19:03.184Z,101159.78
2023-07-12T04:21:31.932Z,101167.53
2023-07-12T04:24:00.752Z,101160.03
2023-07-12T04:26:29.685Z,101158.00
2023-07-12T04:28:58.414Z,101149.44
2023-07-12T04:31:28.824Z,101151.13
2023-07-12T04:33:57.545Z,101148.25
2023-07-12T04:36:26.288Z,101145.53
2023-07-12T04:38:55.038Z,101142.56
2023-07-12T04:41:24.232Z,101125.69
2023-07-12T04:43:52.973Z,101135.91
2023-07-12T04:46:21.706Z,101137.25
2023-07-12T04:48:52.962Z,101141.03
2023-07-12T04:51:22.907Z,101135.97
2023-07-12T04:53:51.640Z,101136.44
2023-07-12T04:56:20.236Z,101134.53
2023-07-12T04:58:48.971Z,101139.31
2023-07-12T05:01:19.922Z,101139.16
2023-07-12T05:03:48.978Z,101130.09
2023-07-12T05:06:23.539Z,101130.91
2023-07-12T05:08:53.935Z,101124.72
2023-07-12T05:11:22.712Z,101108.84
2023-07-12T05:13:51.448Z,101131.75
2023-07-12T05:16:20.604Z,101126.50
2023-07-12T05:18:49.318Z,101126.28
2023-07-12T05:21:21.585Z,101112.69
2023-07-12T05:23:50.318Z,101110.41
2023-07-12T05:26:18.951Z,101108.13
2023-07-12T05:28:47.975Z,101103.38
2023-07-12T05:31:17.257Z,101108.59
2023-07-12T05:33:48.595Z,101101.53
2023-07-12T05:36:18.949Z,101106.91
2023-07-12T05:38:48.500Z,101101.13
2023-07-12T05:41:17.156Z,101091.47
2023-07-12T05:43:46.109Z,101102.19
2023-07-12T05:46:15.453Z,101102.19
2023-07-12T05:48:44.303Z,101094.28
2023-07-12T05:51:13.239Z,101083.34
2023-07-12T05:53:43.417Z,101079.94
2023-07-12T05:56:11.704Z,101070.59
2023-07-12T05:58:40.434Z,101078.41
2023-07-12T06:01:09.563Z,101074.25
2023-07-12T06:03:39.452Z,101090.81
2023-07-12T06:06:09.502Z,101092.22
2023-07-12T06:08:38.495Z,101085.63
2023-07-12T06:11:09.611Z,101081.00
2023-07-12T06:13:39.759Z,101080.56
2023-07-12T06:16:08.780Z,101076.75
2023-07-12T06:18:37.446Z,101084.06
2023-07-12T06:21:09.838Z,101086.63
2023-07-12T06:23:38.854Z,101081.41
2023-07-12T06:26:09.010Z,101077.03
2023-07-12T06:28:37.419Z,101082.81
2023-07-12T06:31:07.395Z,101076.81
2023-07-12T06:33:36.252Z,101079.25
2023-07-12T06:36:05.338Z,101077.88
2023-07-12T06:38:34.101Z,101075.00
2023-07-12T06:41:02.853Z,101078.78
2023-07-12T06:43:33.024Z,101079.47
2023-07-12T06:46:01.837Z,101074.75
2023-07-12T06:48:30.922Z,101068.84
2023-07-12T06:50:59.567Z,101062.47
2023-07-12T06:53:28.744Z,101054.53
2023-07-12T06:55:57.421Z,101050.50
2023-07-12T06:58:26.430Z,101062.56
2023-07-12T07:00:56.622Z,101064.25
2023-07-12T07:03:25.532Z,101065.63
2023-07-12T07:05:54.755Z,101057.72
2023-07-12T07:08:23.571Z,101055.34
2023-07-12T07:10:54.266Z,101063.41
2023-07-12T07:13:24.380Z,101060.50
2023-07-12T07:15:53.161Z,101068.41
2023-07-12T07:18:23.778Z,101071.47
2023-07-12T07:20:53.984Z,101057.75
2023-07-12T07:23:22.375Z,101043.44
2023-07-12T07:25:51.152Z,101028.75
2023-07-12T07:28:22.390Z,101018.75
2023-07-12T07:30:57.213Z,101012.22
2023-07-12T07:33:27.861Z,101010.25
2023-07-12T07:35:56.735Z,101018.75
2023-07-12T07:38:28.522Z,101017.84
2023-07-12T07:40:58.265Z,101009.78
2023-07-12T07:43:27.098Z,101009.22
2023-07-12T07:45:55.911Z,101017.00
2023-07-12T07:48:24.636Z,101009.88
2023-07-12T07:50:54.799Z,101012.09
2023-07-12T07:53:23.152Z,101010.72
2023-07-12T07:55:52.430Z,101006.84
2023-07-12T07:58:22.042Z,101001.56
2023-07-12T08:00:51.081Z,101008.78
2023-07-12T08:03:20.514Z,101009.84
2023-07-12T08:05:49.762Z,101000.19
2023-07-12T08:08:21.644Z,101008.09
2023-07-12T08:10:50.479Z,100998.09
2023-07-12T08:13:19.337Z,100992.25
2023-07-12T08:15:48.148Z,100997.91
2023-07-12T08:18:16.954Z,100990.94
2023-07-12T08:20:45.630Z,100982.25
2023-07-12T08:23:14.389Z,100982.94
2023-07-12T08:25:44.501Z,100994.03
2023-07-12T08:28:12.800Z,101000.38
2023-07-12T08:30:42.412Z,100984.63
2023-07-12T08:33:11.352Z,100985.91
2023-07-12T08:35:48.038Z,100978.69
2023-07-12T08:38:18.632Z,100978.94
2023-07-12T08:40:50.750Z,100971.44
2023-07-12T08:43:22.867Z,100978.94
2023-07-12T08:45:55.250Z,100980.13
2023-07-12T08:48:26.979Z,100962.66
2023-07-12T08:50:55.658Z,100960.69
2023-07-12T08:53:28.616Z,100960.72
2023-07-12T08:56:02.207Z,100971.44
2023-07-12T08:58:37.211Z,100971.22
2023-07-12T09:01:10.351Z,100957.13
2023-07-12T09:03:39.221Z,100958.28
2023-07-12T09:06:13.750Z,100953.41
2023-07-12T09:08:47.380Z,100945.72
2023-07-12T09:11:20.710Z,100951.41
2023-07-12T09:13:49.934Z,100952.38
2023-07-12T09:16:25.312Z,100949.13
2023-07-12T09:18:56.265Z,100942.91
2023-07-12T09:21:28.458Z,100947.66
2023-07-12T09:24:05.032Z,100947.69
2023-07-12T09:26:35.604Z,100936.00
2023-07-12T09:29:10.490Z,100942.31
2023-07-12T09:31:43.169Z,100944.44
2023-07-12T09:34:19.627Z,100932.97
2023-07-12T09:36:48.700Z,100939.00
2023-07-12T09:39:17.404Z,100935.44
2023-07-12T09:41:54.883Z,100933.75
2023-07-12T09:44:24.041Z,100934.28
2023-07-12T09:46:57.346Z,100932.84
2023-07-12T09:49:28.518Z,100931.97
2023-07-12T09:52:07.309Z,100933.69
2023-07-12T09:54:45.800Z,100928.34
2023-07-12T09:57:21.804Z,100926.94
2023-07-12T10:00:00.744Z,100916.66
2023-07-12T10:02:37.863Z,100922.16
2023-07-12T10:05:11.528Z,100925.78
2023-07-12T10:07:54.722Z,100909.56
2023-07-12T10:10:39.705Z,100917.56
2023-07-12T10:13:22.408Z,100898.41
2023-07-12T10:15:51.976Z,100914.34
2023-07-12T10:18:24.589Z,100907.75
2023-07-12T10:20:54.316Z,100900.44
2023-07-12T10:23:30.216Z,100910.91
2023-07-12T10:26:02.253Z,100895.78
2023-07-12T10:28:43.665Z,100896.56
2023-07-12T10:31:24.266Z,100876.00
2023-07-12T10:33:57.320Z,100885.19
2023-07-12T10:36:28.634Z,100881.09
2023-07-12T10:38:57.435Z,100884.88
2023-07-12T10:41:33.236Z,100882.66
2023-07-12T10:44:09.235Z,100876.22
2023-07-12T10:46:41.735Z,100874.13
2023-07-12T10:49:16.564Z,100869.53
2023-07-12T10:51:47.363Z,100870.78
2023-07-12T10:54:48.991Z,100855.78
2023-07-12T10:57:30.474Z,100850.31
2023-07-12T11:00:06.774Z,100851.69
2023-07-12T11:02:45.840Z,100855.38
2023-07-12T11:05:42.659Z,100846.22
2023-07-12T11:08:45.622Z,100849.88
2023-07-12T11:11:50.620Z,100842.06
2023-07-12T11:14:48.528Z,100843.22
2023-07-12T11:17:30.607Z,100849.28
2023-07-12T11:20:08.931Z,100850.78
2023-07-12T11:23:02.783Z,100851.19
2023-07-12T11:25:40.453Z,100857.47
2023-07-12T11:28:30.453Z,100858.34
2023-07-12T11:31:19.569Z,100856.44
2023-07-12T11:33:54.953Z,100851.19
2023-07-12T11:36:25.902Z,100853.66
2023-07-12T11:38:56.548Z,100840.47
2023-07-12T11:41:26.925Z,100850.13
2023-07-12T11:44:02.574Z,100843.06
2023-07-12T11:46:36.683Z,100843.16
2023-07-12T11:49:14.807Z,100845.91
2023-07-12T11:51:44.522Z,100842.06
2023-07-12T11:54:21.222Z,100850.34
2023-07-12T11:56:52.132Z,100844.75
2023-07-12T11:59:23.101Z,100848.50
2023-07-12T12:01:54.783Z,100844.91
2023-07-12T12:04:27.721Z,100849.50
2023-07-12T12:07:01.082Z,100841.94
2023-07-12T12:09:33.569Z,100837.00
2023-07-12T12:12:04.502Z,100846.63
2023-07-12T12:14:41.417Z,100838.38
2023-07-12T12:17:17.612Z,100838.19
2023-07-12T12:19:52.417Z,100839.00
2023-07-12T12:22:27.420Z,100837.97
2023-07-12T12:24:58.926Z,100839.63
2023-07-12T12:27:36.266Z,100837.09
2023-07-12T12:30:21.199Z,100843.06
2023-07-12T12:33:05.944Z,100838.66
2023-07-12T12:35:48.937Z,100837.91
2023-07-12T12:38:29.978Z,100839.44
2023-07-12T12:41:06.238Z,100835.84
2023-07-12T12:43:34.961Z,100822.28
2023-07-12T12:53:53.538Z,100816.63
2023-07-12T13:06:32.575Z,100807.69
2023-07-12T13:21:55.995Z,100787.75
2023-07-12T13:24:24.781Z,100779.78
2023-07-12T13:26:53.496Z,100773.94
2023-07-12T13:29:23.392Z,100780.84
2023-07-12T13:31:52.416Z,100771.09
2023-07-12T13:34:22.832Z,100767.00
2023-07-12T13:36:54.765Z,100767.16
2023-07-12T13:47:00.502Z,100754.75
2023-07-12T13:49:29.177Z,100754.75
2023-07-12T13:51:59.247Z,100761.25
2023-07-12T13:54:28.198Z,100754.91
2023-07-12T13:56:56.938Z,100753.34
2023-07-12T13:59:25.728Z,100753.81
2023-07-12T14:04:27.958Z,100758.94
2023-07-12T14:07:02.181Z,100751.56
2023-07-12T14:12:16.460Z,100746.63
2023-07-12T14:14:49.303Z,100754.16
2023-07-12T14:17:20.931Z,100752.03
2023-07-12T14:19:54.478Z,100744.22
2023-07-12T14:22:29.486Z,100748.00
2023-07-12T14:24:58.943Z,100752.38
2023-07-12T14:27:29.182Z,100752.63
2023-07-12T14:32:34.383Z,100751.09
2023-07-12T14:35:04.252Z,100747.28
2023-07-12T14:37:35.861Z,100742.72
2023-07-12T14:40:06.382Z,100749.72
2023-07-12T14:42:36.023Z,100740.25
2023-07-12T14:45:04.958Z,100741.59
2023-07-12T14:47:33.691Z,100741.91
2023-07-12T14:50:02.429Z,100739.00
2023-07-12T14:52:34.582Z,100735.56
2023-07-12T14:55:07.220Z,100730.91
2023-07-12T14:57:55.983Z,100727.94
2023-07-12T15:00:24.659Z,100728.53
2023-07-12T15:02:56.539Z,100732.72
2023-07-12T15:05:26.262Z,100724.53
2023-07-12T15:07:57.313Z,100717.78
2023-07-12T15:10:26.144Z,100716.22
2023-07-12T15:13:00.481Z,100712.63
2023-07-12T15:15:31.643Z,100711.84
2023-07-12T15:18:04.118Z,100712.81
2023-07-12T15:20:33.960Z,100715.75
2023-07-12T15:23:04.949Z,100708.66
2023-07-12T15:25:33.980Z,100702.84
2023-07-12T15:28:02.687Z,100702.25
2023-07-12T15:30:32.461Z,100688.84
2023-07-12T15:33:02.376Z,100688.84
2023-07-12T15:35:33.242Z,100673.78
2023-07-12T15:38:05.031Z,100676.06
2023-07-12T15:40:56.083Z,100670.78
2023-07-12T15:43:30.163Z,100670.75
2023-07-12T15:46:01.820Z,100665.38
2023-07-12T15:48:33.864Z,100669.09
2023-07-12T15:51:10.563Z,100660.78
2023-07-12T15:53:40.843Z,100662.16
2023-07-12T15:56:14.341Z,100661.59
2023-07-12T15:58:43.191Z,100660.22
2023-07-12T16:01:19.214Z,100663.81
2023-07-12T16:03:48.332Z,100655.84
2023-07-12T16:06:18.015Z,100662.78
2023-07-12T16:08:48.302Z,100662.94
2023-07-12T16:11:24.121Z,100656.69
2023-07-12T16:14:00.663Z,100647.47
2023-07-12T16:16:33.751Z,100642.06
2023-07-12T16:19:02.615Z,100645.31
2023-07-12T16:21:33.227Z,100634.56
2023-07-12T16:24:05.449Z,100635.38
2023-07-12T16:26:36.461Z,100641.22
2023-07-12T16:29:08.115Z,100644.03
2023-07-12T16:31:42.376Z,100630.19
2023-07-12T16:34:17.275Z,100623.13
2023-07-12T16:36:46.503Z,100621.59
2023-07-12T16:39:17.493Z,100618.56
2023-07-12T16:41:47.500Z,100617.03
2023-07-12T16:44:18.382Z,100624.28
2023-07-12T16:46:48.112Z,100607.81
2023-07-12T16:49:17.775Z,100616.66
2023-07-12T16:52:00.173Z,100620.69
2023-07-12T16:54:31.243Z,100604.38
2023-07-12T16:57:00.362Z,100577.06
2023-07-12T16:59:30.888Z,100582.91
2023-07-12T17:02:00.718Z,100583.72
2023-07-12T17:04:30.887Z,100586.66
2023-07-12T17:06:59.960Z,100574.06
2023-07-12T17:09:33.080Z,100566.03
2023-07-12T17:12:02.121Z,100559.66
2023-07-12T17:14:30.759Z,100547.38
2023-07-12T17:17:00.272Z,100550.94
2023-07-12T17:19:29.439Z,100548.19
2023-07-12T17:21:58.425Z,100544.31
2023-07-12T17:24:27.308Z,100554.81
2023-07-12T17:26:57.849Z,100552.50
2023-07-12T17:29:26.524Z,100546.69
2023-07-12T17:31:55.537Z,100533.69
2023-07-12T17:34:27.944Z,100536.44
2023-07-12T17:36:57.386Z,100537.00
2023-07-12T17:39:26.840Z,100535.91
2023-07-12T17:41:57.981Z,100540.16
2023-07-12T17:44:28.296Z,100522.75
2023-07-12T17:47:03.140Z,100523.72
2023-07-12T17:49:32.313Z,100518.31
2023-07-12T17:52:01.714Z,100522.19
2023-07-12T17:54:30.625Z,100523.72
2023-07-12T17:57:01.294Z,100512.94
2023-07-12T17:59:30.020Z,100523.13
2023-07-12T18:01:58.971Z,100510.00
2023-07-12T18:04:27.930Z,100514.31
2023-07-12T18:06:56.635Z,100507.66
2023-07-12T18:09:26.069Z,100499.66
2023-07-12T18:11:57.076Z,100502.97
2023-07-12T18:16:57.425Z,100511.78
2023-07-12T18:19:26.278Z,100505.97
2023-07-12T18:21:55.180Z,100499.66
2023-07-12T18:24:26.415Z,100504.31
2023-07-12T18:26:55.541Z,100499.78
2023-07-12T18:29:24.321Z,100503.66
2023-07-12T18:31:54.591Z,100500.88
2023-07-12T18:34:23.064Z,100491.03
2023-07-12T18:36:51.779Z,100488.03
2023-07-12T18:39:22.113Z,100496.28
2023-07-12T18:41:51.204Z,100486.06
2023-07-12T18:44:19.869Z,100490.34
2023-07-12T18:46:54.120Z,100485.41
2023-07-12T18:49:24.699Z,100475.44
2023-07-12T18:51:56.412Z,100482.34
2023-07-12T18:54:25.619Z,100481.91
2023-07-12T18:56:54.398Z,100479.69
2023-07-12T18:59:23.296Z,100472.78
2023-07-12T19:01:52.978Z,100460.75
2023-07-12T19:04:21.837Z,100470.00
2023-07-12T19:06:52.223Z,100463.25
2023-07-12T19:09:21.224Z,100461.19
2023-07-12T19:11:51.208Z,100455.81
2023-07-12T19:14:22.319Z,100438.25
2023-07-12T19:16:52.667Z,100436.88
2023-07-12T19:19:22.787Z,100428.72
2023-07-12T19:21:53.488Z,100426.94
2023-07-12T19:24:24.766Z,100431.63
2023-07-12T19:26:55.159Z,100437.13
2023-07-12T19:29:25.156Z,100433.84
2023-07-12T19:31:54.148Z,100443.34
2023-07-12T19:34:24.218Z,100433.56
2023-07-12T19:36:56.050Z,100431.34
2023-07-12T19:39:25.171Z,100437.84
2023-07-12T19:41:54.261Z,100439.34
2023-07-12T19:44:23.210Z,100448.47
2023-07-12T19:46:53.338Z,100444.03
2023-07-12T19:49:22.804Z,100440.97
2023-07-12T19:51:51.776Z,100415.91
2023-07-12T19:54:23.243Z,100435.63
2023-07-12T19:56:53.508Z,100430.00
2023-07-12T19:59:22.301Z,100424.75
2023-07-12T20:01:51.255Z,100427.16
2023-07-12T20:04:20.235Z,100430.59
2023-07-12T20:06:53.395Z,100434.81
2023-07-12T20:09:23.804Z,100431.81
2023-07-12T20:11:52.692Z,100422.06
2023-07-12T20:14:21.609Z,100427.53
2023-07-12T20:16:50.478Z,100423.56
2023-07-12T20:19:19.563Z,100421.72
2023-07-12T20:21:48.551Z,100404.22
2023-07-12T20:24:18.031Z,100412.28
2023-07-12T20:26:48.551Z,100403.88
2023-07-12T20:29:17.332Z,100406.28
2023-07-12T20:32:05.197Z,100403.66
2023-07-12T20:34:35.265Z,100396.91
2023-07-12T20:37:09.072Z,100396.56
2023-07-12T20:39:39.616Z,100399.19
2023-07-12T20:42:11.147Z,100390.38
2023-07-12T20:44:41.409Z,100387.75
2023-07-12T20:47:09.901Z,100386.22
2023-07-12T20:49:40.579Z,100389.41
2023-07-12T20:52:10.378Z,100376.69
2023-07-12T20:54:40.371Z,100372.88
2023-07-12T20:57:11.087Z,100369.19
2023-07-12T20:59:39.943Z,100367.78
2023-07-12T21:02:10.659Z,100368.75
2023-07-12T21:04:39.440Z,100364.31
2023-07-12T21:07:08.257Z,100372.59
2023-07-12T21:09:36.920Z,100370.50
2023-07-12T21:12:06.610Z,100366.13
2023-07-12T21:14:37.303Z,100365.88
2023-07-12T21:17:06.468Z,100364.44
2023-07-12T21:19:35.343Z,100373.13
2023-07-12T21:22:04.911Z,100364.06
2023-07-12T21:24:33.696Z,100360.63
2023-07-12T21:27:02.709Z,100354.94
2023-07-12T21:29:31.348Z,100365.50
2023-07-12T21:32:01.722Z,100363.84
2023-07-12T21:34:30.500Z,100371.81
2023-07-12T21:36:59.224Z,100364.44
2023-07-12T21:39:27.895Z,100363.38
2023-07-12T21:41:57.110Z,100369.94
2023-07-12T21:44:25.858Z,100363.38
2023-07-12T21:46:54.696Z,100364.81
2023-07-12T21:49:25.001Z,100366.13
2023-07-12T21:51:53.269Z,100359.34
2023-07-12T21:54:22.011Z,100354.00
2023-07-12T21:56:51.061Z,100347.59
2023-07-12T21:59:19.770Z,100357.34
2023-07-12T22:01:48.549Z,100355.81
2023-07-12T22:04:17.454Z,100359.28
2023-07-12T22:06:47.749Z,100358.34
2023-07-12T22:09:17.799Z,100352.47
2023-07-12T22:11:46.491Z,100358.75
2023-07-12T22:14:15.141Z,100354.84
2023-07-12T22:16:43.850Z,100353.78
2023-07-12T22:19:12.552Z,100354.84
2023-07-12T22:21:41.329Z,100359.13
2023-07-12T22:24:11.451Z,100358.75
2023-07-12T22:26:40.228Z,100360.63
2023-07-12T22:29:09.500Z,100366.59
2023-07-12T22:31:38.375Z,100362.88
2023-07-12T22:34:07.148Z,100366.22
2023-07-12T22:36:35.802Z,100375.81
2023-07-12T22:39:05.967Z,100383.06
2023-07-12T22:41:36.142Z,100375.00
2023-07-12T22:44:04.910Z,100380.91
2023-07-12T22:46:33.478Z,100386.25
2023-07-12T22:49:04.608Z,100392.22
2023-07-12T22:51:35.037Z,100388.75
2023-07-12T22:54:04.291Z,100379.72
2023-07-12T22:56:33.039Z,100383.41
2023-07-12T22:59:03.201Z,100386.78
2023-07-12T23:01:32.554Z,100395.25
2023-07-12T23:04:01.350Z,100379.63
2023-07-12T23:06:30.004Z,100377.50
2023-07-12T23:08:59.829Z,100387.81
2023-07-12T23:11:28.722Z,100377.09
2023-07-12T23:13:57.440Z,100391.84
2023-07-12T23:16:28.265Z,100387.78
2023-07-12T23:18:56.894Z,100399.41
2023-07-12T23:21:26.378Z,100393.38
2023-07-12T23:23:55.119Z,100385.53
2023-07-12T23:26:24.199Z,100398.47
2023-07-12T23:28:54.877Z,100401.88
2023-07-12T23:31:23.780Z,100403.31
2023-07-12T23:33:53.980Z,100397.88
2023-07-12T23:36:22.757Z,100391.41
2023-07-12T23:38:53.431Z,100398.53
2023-07-12T23:41:22.566Z,100395.31
2023-07-12T23:43:51.451Z,100392.19
2023-07-12T23:46:20.198Z,100401.81
2023-07-12T23:48:49.020Z,100401.63
2023-07-12T23:51:19.161Z,100397.09
2023-07-12T23:53:47.896Z,100397.41
2023-07-12T23:56:19.782Z,100403.06
2023-07-12T23:58:48.872Z,100391.47
